sensor_id;sensor_type;location;lat;lon;timestamp;pressure;altitude;pressure_sealevel;temperature;humidity
73220;BME280;61434;43.538;-5.688;2022-10-16T00:00:41;101114.44;;;19.66;80.48
73220;BME280;61434;43.538;-5.688;2022-10-16T00:03:07;101106.59;;;19.63;80.82
73220;BME280;61434;43.538;-5.688;2022-10-16T00:05:38;101106.78;;;19.62;80.71
73220;BME280;61434;43.538;-5.688;2022-10-16T00:08:04;101106.13;;;19.60;80.64
73220;BME280;61434;43.538;-5.688;2022-10-16T00:10:29;101112.91;;;19.64;80.54
73220;BME280;61434;43.538;-5.688;2022-10-16T00:12:55;101111.03;;;19.64;80.31
73220;BME280;61434;43.538;-5.688;2022-10-16T00:15:20;101105.41;;;19.58;80.15
73220;BME280;61434;43.538;-5.688;2022-10-16T00:17:46;101098.59;;;19.54;80.54
73220;BME280;61434;43.538;-5.688;2022-10-16T00:20:11;101102.91;;;19.48;80.70
73220;BME280;61434;43.538;-5.688;2022-10-16T00:22:36;101099.31;;;19.47;80.70
73220;BME280;61434;43.538;-5.688;2022-10-16T00:25:02;101092.44;;;19.29;81.57
73220;BME280;61434;43.538;-5.688;2022-10-16T00:27:28;101091.22;;;19.31;81.71
73220;BME280;61434;43.538;-5.688;2022-10-16T00:29:53;101079.28;;;19.32;81.34
73220;BME280;61434;43.538;-5.688;2022-10-16T00:32:19;101072.66;;;19.27;81.96
73220;BME280;61434;43.538;-5.688;2022-10-16T00:34:45;101076.88;;;19.29;81.61
73220;BME280;61434;43.538;-5.688;2022-10-16T00:37:11;101078.97;;;19.27;81.71
73220;BME280;61434;43.538;-5.688;2022-10-16T00:39:37;101068.34;;;19.32;81.31
73220;BME280;61434;43.538;-5.688;2022-10-16T00:42:02;101072.47;;;19.28;81.34
73220;BME280;61434;43.538;-5.688;2022-10-16T00:47:26;101063.78;;;19.25;81.25
73220;BME280;61434;43.538;-5.688;2022-10-16T00:49:57;101068.56;;;19.22;81.40
73220;BME280;61434;43.538;-5.688;2022-10-16T00:52:24;101067.75;;;19.14;81.48
73220;BME280;61434;43.538;-5.688;2022-10-16T00:54:50;101051.91;;;19.09;81.96
73220;BME280;61434;43.538;-5.688;2022-10-16T00:57:17;101058.19;;;19.18;81.39
73220;BME280;61434;43.538;-5.688;2022-10-16T00:59:42;101053.06;;;19.15;81.33
73220;BME280;61434;43.538;-5.688;2022-10-16T01:02:14;101060.72;;;19.19;80.82
73220;BME280;61434;43.538;-5.688;2022-10-16T01:04:48;101052.19;;;19.22;80.77
73220;BME280;61434;43.538;-5.688;2022-10-16T01:10:33;101046.09;;;19.12;80.99
73220;BME280;61434;43.538;-5.688;2022-10-16T01:13:07;101037.19;;;19.18;80.53
73220;BME280;61434;43.538;-5.688;2022-10-16T01:21:04;101037.09;;;19.04;80.69
73220;BME280;61434;43.538;-5.688;2022-10-16T01:23:51;101035.94;;;18.98;80.87
73220;BME280;61434;43.538;-5.688;2022-10-16T01:29:30;101033.69;;;19.02;80.81
73220;BME280;61434;43.538;-5.688;2022-10-16T01:32:06;101030.16;;;18.93;80.58
73220;BME280;61434;43.538;-5.688;2022-10-16T01:34:41;101018.88;;;18.96;80.28
73220;BME280;61434;43.538;-5.688;2022-10-16T01:37:14;101022.31;;;18.90;80.53
73220;BME280;61434;43.538;-5.688;2022-10-16T01:39:44;101025.38;;;18.95;79.79
73220;BME280;61434;43.538;-5.688;2022-10-16T01:42:21;101027.28;;;18.86;80.37
73220;BME280;61434;43.538;-5.688;2022-10-16T01:44:49;101029.34;;;18.84;80.19
73220;BME280;61434;43.538;-5.688;2022-10-16T01:47:17;101021.16;;;18.84;80.22
73220;BME280;61434;43.538;-5.688;2022-10-16T01:49:45;101022.19;;;18.83;80.61
73220;BME280;61434;43.538;-5.688;2022-10-16T01:52:16;101024.53;;;18.86;80.56
73220;BME280;61434;43.538;-5.688;2022-10-16T01:54:46;101021.50;;;18.81;80.45
73220;BME280;61434;43.538;-5.688;2022-10-16T01:57:13;101023.41;;;18.73;80.60
73220;BME280;61434;43.538;-5.688;2022-10-16T01:59:44;101016.06;;;18.73;nan
73220;BME280;61434;43.538;-5.688;2022-10-16T02:02:12;101012.34;;;18.66;80.79
73220;BME280;61434;43.538;-5.688;2022-10-16T02:04:51;101005.16;;;18.73;80.01
73220;BME280;61434;43.538;-5.688;2022-10-16T02:07:18;101002.06;;;18.68;80.22
73220;BME280;61434;43.538;-5.688;2022-10-16T02:09:44;101010.13;;;18.69;79.91
73220;BME280;61434;43.538;-5.688;2022-10-16T02:12:33;101011.31;;;18.59;80.42
73220;BME280;61434;43.538;-5.688;2022-10-16T02:15:02;101007.22;;;18.63;80.09
73220;BME280;61434;43.538;-5.688;2022-10-16T02:17:28;101000.38;;;18.67;79.87
73220;BME280;61434;43.538;-5.688;2022-10-16T02:19:55;100991.50;;;18.73;79.64
73220;BME280;61434;43.538;-5.688;2022-10-16T02:22:27;100993.25;;;18.58;80.07
73220;BME280;61434;43.538;-5.688;2022-10-16T02:25:08;100991.34;;;18.66;79.57
73220;BME280;61434;43.538;-5.688;2022-10-16T02:30:16;100980.63;;;18.65;79.11
73220;BME280;61434;43.538;-5.688;2022-10-16T02:32:46;100971.81;;;18.55;79.07
73220;BME280;61434;43.538;-5.688;2022-10-16T02:35:15;100978.25;;;18.54;79.23
73220;BME280;61434;43.538;-5.688;2022-10-16T02:37:42;100972.16;;;18.52;79.40
73220;BME280;61434;43.538;-5.688;2022-10-16T02:40:08;100970.97;;;18.54;78.79
73220;BME280;61434;43.538;-5.688;2022-10-16T02:42:36;100958.81;;;18.57;78.80
73220;BME280;61434;43.538;-5.688;2022-10-16T02:45:03;100963.00;;;18.36;79.33
73220;BME280;61434;43.538;-5.688;2022-10-16T02:47:28;100962.81;;;18.38;78.96
73220;BME280;61434;43.538;-5.688;2022-10-16T02:49:54;100966.19;;;18.48;78.61
73220;BME280;61434;43.538;-5.688;2022-10-16T02:52:19;100958.22;;;18.38;78.88
73220;BME280;61434;43.538;-5.688;2022-10-16T02:54:45;100954.81;;;18.36;78.92
73220;BME280;61434;43.538;-5.688;2022-10-16T02:57:10;100957.91;;;18.25;79.34
73220;BME280;61434;43.538;-5.688;2022-10-16T02:59:37;100949.06;;;18.31;78.75
73220;BME280;61434;43.538;-5.688;2022-10-16T03:02:02;100955.03;;;18.27;78.55
73220;BME280;61434;43.538;-5.688;2022-10-16T03:04:28;100949.72;;;18.33;78.78
73220;BME280;61434;43.538;-5.688;2022-10-16T03:06:53;100941.56;;;18.25;79.08
73220;BME280;61434;43.538;-5.688;2022-10-16T03:09:19;100931.22;;;18.20;79.21
73220;BME280;61434;43.538;-5.688;2022-10-16T03:11:44;100934.56;;;18.31;78.85
73220;BME280;61434;43.538;-5.688;2022-10-16T03:14:10;100938.50;;;18.20;78.84
73220;BME280;61434;43.538;-5.688;2022-10-16T03:16:35;100936.47;;;18.22;78.85
73220;BME280;61434;43.538;-5.688;2022-10-16T03:19:02;100936.50;;;18.14;78.88
73220;BME280;61434;43.538;-5.688;2022-10-16T03:21:27;100932.41;;;18.18;79.11
73220;BME280;61434;43.538;-5.688;2022-10-16T03:23:53;100926.13;;;18.01;79.08
73220;BME280;61434;43.538;-5.688;2022-10-16T03:26:18;100924.94;;;17.95;78.79
73220;BME280;61434;43.538;-5.688;2022-10-16T03:28:44;100925.31;;;17.92;79.01
73220;BME280;61434;43.538;-5.688;2022-10-16T03:31:09;100922.09;;;17.89;78.68
73220;BME280;61434;43.538;-5.688;2022-10-16T03:33:35;100919.69;;;17.86;78.47
73220;BME280;61434;43.538;-5.688;2022-10-16T03:36:00;100913.56;;;17.92;78.58
73220;BME280;61434;43.538;-5.688;2022-10-16T03:38:26;100918.00;;;17.85;79.00
73220;BME280;61434;43.538;-5.688;2022-10-16T03:40:51;100920.53;;;17.86;78.43
73220;BME280;61434;43.538;-5.688;2022-10-16T03:43:16;100906.91;;;17.94;77.60
73220;BME280;61434;43.538;-5.688;2022-10-16T03:45:42;100907.63;;;17.88;78.37
73220;BME280;61434;43.538;-5.688;2022-10-16T03:48:08;100915.72;;;18.13;77.60
73220;BME280;61434;43.538;-5.688;2022-10-16T03:50:33;100911.50;;;17.94;77.48
73220;BME280;61434;43.538;-5.688;2022-10-16T03:52:59;100899.41;;;17.97;77.23
73220;BME280;61434;43.538;-5.688;2022-10-16T03:55:24;100887.19;;;17.84;77.73
73220;BME280;61434;43.538;-5.688;2022-10-16T03:57:49;100888.03;;;17.85;78.28
73220;BME280;61434;43.538;-5.688;2022-10-16T04:00:15;100891.59;;;17.85;77.50
73220;BME280;61434;43.538;-5.688;2022-10-16T04:02:40;100896.53;;;17.82;77.50
73220;BME280;61434;43.538;-5.688;2022-10-16T04:05:06;100888.38;;;17.82;77.35
73220;BME280;61434;43.538;-5.688;2022-10-16T04:07:32;100890.94;;;17.83;76.94
73220;BME280;61434;43.538;-5.688;2022-10-16T04:09:58;100894.34;;;17.77;77.14
73220;BME280;61434;43.538;-5.688;2022-10-16T04:12:27;100895.53;;;17.66;77.33
73220;BME280;61434;43.538;-5.688;2022-10-16T04:14:53;100888.56;;;17.64;77.20
73220;BME280;61434;43.538;-5.688;2022-10-16T04:17:18;100884.94;;;17.72;77.11
73220;BME280;61434;43.538;-5.688;2022-10-16T04:19:44;100885.47;;;17.67;77.39
73220;BME280;61434;43.538;-5.688;2022-10-16T04:22:09;100879.88;;;17.68;76.87
73220;BME280;61434;43.538;-5.688;2022-10-16T04:24:35;100885.16;;;17.62;77.24
73220;BME280;61434;43.538;-5.688;2022-10-16T04:27:00;100882.41;;;17.62;77.35
73220;BME280;61434;43.538;-5.688;2022-10-16T04:29:26;100876.66;;;17.57;77.32
73220;BME280;61434;43.538;-5.688;2022-10-16T04:31:51;100874.25;;;17.78;76.82
73220;BME280;61434;43.538;-5.688;2022-10-16T04:34:17;100880.91;;;17.59;76.77
73220;BME280;61434;43.538;-5.688;2022-10-16T04:36:42;100877.66;;;17.56;77.10
73220;BME280;61434;43.538;-5.688;2022-10-16T04:39:07;100873.06;;;17.48;76.93
73220;BME280;61434;43.538;-5.688;2022-10-16T04:41:33;100873.22;;;17.63;76.80
73220;BME280;61434;43.538;-5.688;2022-10-16T04:43:59;100871.56;;;17.54;76.70
73220;BME280;61434;43.538;-5.688;2022-10-16T04:46:24;100865.94;;;17.55;77.11
73220;BME280;61434;43.538;-5.688;2022-10-16T04:48:50;100863.41;;;17.54;77.11
73220;BME280;61434;43.538;-5.688;2022-10-16T04:51:15;100865.59;;;17.58;77.01
73220;BME280;61434;43.538;-5.688;2022-10-16T04:53:40;100860.69;;;17.37;76.75
73220;BME280;61434;43.538;-5.688;2022-10-16T04:56:06;100869.19;;;17.42;76.92
73220;BME280;61434;43.538;-5.688;2022-10-16T04:58:31;100865.59;;;17.34;76.99
73220;BME280;61434;43.538;-5.688;2022-10-16T05:00:57;100858.28;;;17.42;76.56
73220;BME280;61434;43.538;-5.688;2022-10-16T05:03:23;100862.56;;;17.45;76.47
73220;BME280;61434;43.538;-5.688;2022-10-16T05:05:48;100859.16;;;17.35;76.14
73220;BME280;61434;43.538;-5.688;2022-10-16T05:08:15;100858.47;;;17.33;75.84
73220;BME280;61434;43.538;-5.688;2022-10-16T05:10:42;100858.31;;;17.26;76.08
73220;BME280;61434;43.538;-5.688;2022-10-16T05:13:08;100859.66;;;17.22;76.00
73220;BME280;61434;43.538;-5.688;2022-10-16T05:15:33;100867.16;;;17.28;76.11
73220;BME280;61434;43.538;-5.688;2022-10-16T05:17:59;100854.75;;;17.17;76.47
73220;BME280;61434;43.538;-5.688;2022-10-16T05:20:24;100860.66;;;17.46;75.91
73220;BME280;61434;43.538;-5.688;2022-10-16T05:22:50;100857.28;;;17.27;76.25
73220;BME280;61434;43.538;-5.688;2022-10-16T05:25:16;100859.50;;;17.40;76.03
73220;BME280;61434;43.538;-5.688;2022-10-16T05:27:42;100857.94;;;17.37;75.95
73220;BME280;61434;43.538;-5.688;2022-10-16T05:30:08;100860.84;;;17.44;75.97
73220;BME280;61434;43.538;-5.688;2022-10-16T05:32:33;100863.91;;;17.49;76.28
73220;BME280;61434;43.538;-5.688;2022-10-16T05:34:59;100863.91;;;17.49;76.06
73220;BME280;61434;43.538;-5.688;2022-10-16T05:37:27;100868.16;;;17.43;76.38
73220;BME280;61434;43.538;-5.688;2022-10-16T05:39:52;100870.53;;;17.38;76.68
73220;BME280;61434;43.538;-5.688;2022-10-16T05:42:18;100875.16;;;17.30;76.85
73220;BME280;61434;43.538;-5.688;2022-10-16T05:44:44;100878.06;;;17.20;76.71
73220;BME280;61434;43.538;-5.688;2022-10-16T05:47:09;100883.13;;;16.99;76.78
73220;BME280;61434;43.538;-5.688;2022-10-16T05:49:36;100880.59;;;17.13;76.68
73220;BME280;61434;43.538;-5.688;2022-10-16T05:52:01;100897.59;;;17.07;77.01
73220;BME280;61434;43.538;-5.688;2022-10-16T05:54:27;100894.88;;;17.07;77.03
73220;BME280;61434;43.538;-5.688;2022-10-16T05:56:52;100896.41;;;17.10;77.65
73220;BME280;61434;43.538;-5.688;2022-10-16T05:59:18;100890.47;;;17.23;77.37
73220;BME280;61434;43.538;-5.688;2022-10-16T06:01:43;100895.56;;;17.34;77.45
73220;BME280;61434;43.538;-5.688;2022-10-16T06:04:09;100889.94;;;17.27;77.58
73220;BME280;61434;43.538;-5.688;2022-10-16T06:06:34;100891.66;;;17.28;78.28
73220;BME280;61434;43.538;-5.688;2022-10-16T06:09:02;100892.31;;;17.14;79.41
73220;BME280;61434;43.538;-5.688;2022-10-16T06:11:29;100903.22;;;17.22;79.49
73220;BME280;61434;43.538;-5.688;2022-10-16T06:13:57;100889.78;;;17.21;79.36
73220;BME280;61434;43.538;-5.688;2022-10-16T06:16:24;100886.56;;;17.25;79.69
73220;BME280;61434;43.538;-5.688;2022-10-16T06:18:51;100880.09;;;17.34;79.49
73220;BME280;61434;43.538;-5.688;2022-10-16T06:21:19;100881.59;;;17.29;78.90
73220;BME280;61434;43.538;-5.688;2022-10-16T06:23:45;100881.28;;;17.32;78.97
73220;BME280;61434;43.538;-5.688;2022-10-16T06:26:16;100876.66;;;17.24;79.18
73220;BME280;61434;43.538;-5.688;2022-10-16T06:28:43;100880.09;;;17.34;78.39
73220;BME280;61434;43.538;-5.688;2022-10-16T06:31:10;100891.31;;;17.23;78.63
73220;BME280;61434;43.538;-5.688;2022-10-16T06:33:37;100891.66;;;17.20;78.70
73220;BME280;61434;43.538;-5.688;2022-10-16T06:36:09;100887.22;;;17.27;78.33
73220;BME280;61434;43.538;-5.688;2022-10-16T06:38:35;100878.88;;;17.29;78.40
73220;BME280;61434;43.538;-5.688;2022-10-16T06:41:01;100881.47;;;17.30;77.60
73220;BME280;61434;43.538;-5.688;2022-10-16T06:43:29;100870.91;;;17.27;77.02
73220;BME280;61434;43.538;-5.688;2022-10-16T06:45:59;100869.19;;;17.26;77.26
73220;BME280;61434;43.538;-5.688;2022-10-16T06:48:26;100872.44;;;17.22;76.74
73220;BME280;61434;43.538;-5.688;2022-10-16T06:50:59;100867.16;;;17.12;77.44
73220;BME280;61434;43.538;-5.688;2022-10-16T06:53:27;100867.50;;;17.25;76.71
73220;BME280;61434;43.538;-5.688;2022-10-16T06:55:53;100869.34;;;17.33;76.51
73220;BME280;61434;43.538;-5.688;2022-10-16T06:58:19;100866.47;;;17.34;75.99
73220;BME280;61434;43.538;-5.688;2022-10-16T07:00:44;100864.25;;;17.38;76.16
73220;BME280;61434;43.538;-5.688;2022-10-16T07:03:10;100867.16;;;17.44;75.98
73220;BME280;61434;43.538;-5.688;2022-10-16T07:05:39;100869.50;;;17.48;76.09
73220;BME280;61434;43.538;-5.688;2022-10-16T07:08:05;100866.31;;;17.36;76.18
73220;BME280;61434;43.538;-5.688;2022-10-16T07:10:31;100850.44;;;17.48;76.28
73220;BME280;61434;43.538;-5.688;2022-10-16T07:12:57;100847.56;;;17.49;76.38
73220;BME280;61434;43.538;-5.688;2022-10-16T07:15:22;100853.81;;;17.58;76.37
73220;BME280;61434;43.538;-5.688;2022-10-16T07:17:48;100847.72;;;17.56;76.13
73220;BME280;61434;43.538;-5.688;2022-10-16T07:20:13;100855.03;;;17.55;76.46
73220;BME280;61434;43.538;-5.688;2022-10-16T07:22:39;100857.72;;;17.72;75.91
73220;BME280;61434;43.538;-5.688;2022-10-16T07:25:05;100853.66;;;17.76;75.54
73220;BME280;61434;43.538;-5.688;2022-10-16T07:27:30;100844.81;;;17.74;75.75
73220;BME280;61434;43.538;-5.688;2022-10-16T07:29:56;100852.41;;;17.86;75.06
73220;BME280;61434;43.538;-5.688;2022-10-16T07:32:21;100859.06;;;17.92;75.45
73220;BME280;61434;43.538;-5.688;2022-10-16T07:34:46;100856.16;;;17.93;75.70
73220;BME280;61434;43.538;-5.688;2022-10-16T07:37:12;100866.56;;;17.90;75.52
73220;BME280;61434;43.538;-5.688;2022-10-16T07:39:37;100869.59;;;17.95;75.22
73220;BME280;61434;43.538;-5.688;2022-10-16T07:42:03;100870.94;;;18.07;75.15
73220;BME280;61434;43.538;-5.688;2022-10-16T07:44:28;100865.69;;;17.98;75.37
73220;BME280;61434;43.538;-5.688;2022-10-16T07:46:54;100878.06;;;18.16;75.09
73220;BME280;61434;43.538;-5.688;2022-10-16T07:49:19;100876.69;;;18.20;75.29
73220;BME280;61434;43.538;-5.688;2022-10-16T07:51:45;100870.81;;;18.32;74.90
73220;BME280;61434;43.538;-5.688;2022-10-16T07:54:11;100875.44;;;18.31;74.76
73220;BME280;61434;43.538;-5.688;2022-10-16T07:56:36;100875.13;;;18.49;74.34
73220;BME280;61434;43.538;-5.688;2022-10-16T07:59:02;100876.38;;;18.46;74.13
73220;BME280;61434;43.538;-5.688;2022-10-16T08:01:27;100870.25;;;18.44;74.14
73220;BME280;61434;43.538;-5.688;2022-10-16T08:03:53;100881.53;;;18.33;74.70
73220;BME280;61434;43.538;-5.688;2022-10-16T08:06:20;100888.47;;;18.44;74.75
73220;BME280;61434;43.538;-5.688;2022-10-16T08:08:46;100894.16;;;18.65;74.13
73220;BME280;61434;43.538;-5.688;2022-10-16T08:11:12;100891.66;;;18.56;74.41
73220;BME280;61434;43.538;-5.688;2022-10-16T08:13:39;100891.34;;;18.51;74.22
73220;BME280;61434;43.538;-5.688;2022-10-16T08:16:05;100891.44;;;18.65;74.01
73220;BME280;61434;43.538;-5.688;2022-10-16T08:18:38;100884.75;;;18.76;73.88
73220;BME280;61434;43.538;-5.688;2022-10-16T08:21:05;100882.56;;;18.71;73.67
73220;BME280;61434;43.538;-5.688;2022-10-16T08:23:32;100896.03;;;18.96;72.86
73220;BME280;61434;43.538;-5.688;2022-10-16T08:26:03;100881.22;;;18.90;73.03
73220;BME280;61434;43.538;-5.688;2022-10-16T08:28:28;100880.94;;;19.08;72.25
73220;BME280;61434;43.538;-5.688;2022-10-16T08:30:54;100869.28;;;19.14;72.27
73220;BME280;61434;43.538;-5.688;2022-10-16T08:33:21;100864.16;;;19.34;71.62
73220;BME280;61434;43.538;-5.688;2022-10-16T08:35:53;100875.00;;;19.42;71.16
73220;BME280;61434;43.538;-5.688;2022-10-16T08:38:20;100870.13;;;19.53;71.01
73220;BME280;61434;43.538;-5.688;2022-10-16T08:40:45;100881.34;;;19.58;70.95
73220;BME280;61434;43.538;-5.688;2022-10-16T08:48:47;100884.97;;;19.73;70.33
73220;BME280;61434;43.538;-5.688;2022-10-16T08:51:32;100888.38;;;19.90;69.92
73220;BME280;61434;43.538;-5.688;2022-10-16T08:54:05;100888.75;;;20.16;68.85
73220;BME280;61434;43.538;-5.688;2022-10-16T08:56:31;100882.41;;;20.31;68.34
73220;BME280;61434;43.538;-5.688;2022-10-16T08:58:58;100878.56;;;20.25;68.54
73220;BME280;61434;43.538;-5.688;2022-10-16T09:01:36;100880.06;;;20.42;67.92
73220;BME280;61434;43.538;-5.688;2022-10-16T09:06:51;100875.25;;;22.08;63.07
73220;BME280;61434;43.538;-5.688;2022-10-16T09:25:44;100874.13;;;21.95;61.61
73220;BME280;61434;43.538;-5.688;2022-10-16T09:28:10;100875.59;;;21.98;61.42
73220;BME280;61434;43.538;-5.688;2022-10-16T09:30:37;100873.81;;;22.12;61.06
73220;BME280;61434;43.538;-5.688;2022-10-16T09:33:04;100870.53;;;22.30;60.96
73220;BME280;61434;43.538;-5.688;2022-10-16T09:35:46;100866.25;;;22.14;60.87
73220;BME280;61434;43.538;-5.688;2022-10-16T09:38:30;100864.34;;;22.75;59.84
73220;BME280;61434;43.538;-5.688;2022-10-16T09:41:01;100853.03;;;23.45;57.45
73220;BME280;61434;43.538;-5.688;2022-10-16T09:43:40;100858.22;;;24.13;55.79
73220;BME280;61434;43.538;-5.688;2022-10-16T09:46:19;100858.22;;;24.13;55.79
73220;BME280;61434;43.538;-5.688;2022-10-16T09:48:48;100863.50;;;25.04;52.41
73220;BME280;61434;43.538;-5.688;2022-10-16T09:53:58;100857.66;;;25.50;50.39
73220;BME280;61434;43.538;-5.688;2022-10-16T09:56:30;100865.88;;;26.19;49.33
73220;BME280;61434;43.538;-5.688;2022-10-16T09:59:00;100867.41;;;26.51;48.50
73220;BME280;61434;43.538;-5.688;2022-10-16T10:01:40;100852.41;;;26.89;46.96
73220;BME280;61434;43.538;-5.688;2022-10-16T10:04:07;100848.41;;;27.15;46.75
73220;BME280;61434;43.538;-5.688;2022-10-16T10:06:35;100846.53;;;26.00;48.71
73220;BME280;61434;43.538;-5.688;2022-10-16T10:11:44;100852.91;;;25.07;51.08
73220;BME280;61434;43.538;-5.688;2022-10-16T10:14:34;100849.63;;;23.83;55.01
73220;BME280;61434;43.538;-5.688;2022-10-16T10:22:30;100841.78;;;24.51;53.28
73220;BME280;61434;43.538;-5.688;2022-10-16T10:27:56;100830.13;;;23.97;54.58
73220;BME280;61434;43.538;-5.688;2022-10-16T10:33:35;100835.50;;;23.13;57.05
73220;BME280;61434;43.538;-5.688;2022-10-16T10:36:59;100831.47;;;23.22;57.49
73220;BME280;61434;43.538;-5.688;2022-10-16T10:39:00;100832.25;;;22.83;58.79
73220;BME280;61434;43.538;-5.688;2022-10-16T10:44:30;100830.19;;;22.91;57.39
73220;BME280;61434;43.538;-5.688;2022-10-16T10:50:22;100820.81;;;22.59;58.10
73220;BME280;61434;43.538;-5.688;2022-10-16T10:52:58;100821.16;;;22.36;58.36
73220;BME280;61434;43.538;-5.688;2022-10-16T10:55:40;100819.22;;;22.23;59.01
73220;BME280;61434;43.538;-5.688;2022-10-16T11:06:02;100811.38;;;21.79;61.15
73220;BME280;61434;43.538;-5.688;2022-10-16T11:08:35;100817.03;;;21.71;61.20
73220;BME280;61434;43.538;-5.688;2022-10-16T11:14:19;100817.97;;;21.29;62.07
73220;BME280;61434;43.538;-5.688;2022-10-16T11:17:05;100826.13;;;21.43;62.15
73220;BME280;61434;43.538;-5.688;2022-10-16T11:19:54;100818.63;;;21.93;60.68
73220;BME280;61434;43.538;-5.688;2022-10-16T11:22:37;100815.06;;;21.58;62.08
73220;BME280;61434;43.538;-5.688;2022-10-16T11:30:18;100802.19;;;21.59;63.83
73220;BME280;61434;43.538;-5.688;2022-10-16T11:35:43;100798.34;;;21.25;65.59
73220;BME280;61434;43.538;-5.688;2022-10-16T11:38:19;100788.31;;;21.32;66.62
73220;BME280;61434;43.538;-5.688;2022-10-16T11:40:50;100786.84;;;21.36;66.71
73220;BME280;61434;43.538;-5.688;2022-10-16T11:43:26;100787.28;;;21.33;67.26
73220;BME280;61434;43.538;-5.688;2022-10-16T11:45:55;100782.00;;;21.10;68.61
73220;BME280;61434;43.538;-5.688;2022-10-16T11:48:54;100785.00;;;21.15;68.28
73220;BME280;61434;43.538;-5.688;2022-10-16T11:51:36;100785.78;;;21.09;68.54
73220;BME280;61434;43.538;-5.688;2022-10-16T11:56:37;100786.78;;;21.01;68.12
73220;BME280;61434;43.538;-5.688;2022-10-16T12:01:37;100778.97;;;20.98;69.05
73220;BME280;61434;43.538;-5.688;2022-10-16T12:04:26;100772.84;;;21.24;68.67
73220;BME280;61434;43.538;-5.688;2022-10-16T12:09:30;100767.16;;;21.26;68.56
73220;BME280;61434;43.538;-5.688;2022-10-16T12:11:56;100768.56;;;21.15;69.09
73220;BME280;61434;43.538;-5.688;2022-10-16T12:14:37;100767.75;;;21.21;69.23
73220;BME280;61434;43.538;-5.688;2022-10-16T12:17:22;100762.84;;;21.38;68.60
73220;BME280;61434;43.538;-5.688;2022-10-16T12:20:18;100761.38;;;20.86;70.27
73220;BME280;61434;43.538;-5.688;2022-10-16T12:22:55;100765.78;;;20.87;70.26
73220;BME280;61434;43.538;-5.688;2022-10-16T12:28:20;100758.19;;;20.83;70.55
73220;BME280;61434;43.538;-5.688;2022-10-16T12:30:58;100756.16;;;20.91;70.74
73220;BME280;61434;43.538;-5.688;2022-10-16T12:33:27;100743.06;;;20.87;71.45
73220;BME280;61434;43.538;-5.688;2022-10-16T12:35:53;100755.72;;;21.16;70.67
73220;BME280;61434;43.538;-5.688;2022-10-16T12:38:27;100764.88;;;21.58;69.56
73220;BME280;61434;43.538;-5.688;2022-10-16T12:41:04;100751.56;;;21.26;70.21
73220;BME280;61434;43.538;-5.688;2022-10-16T12:43:47;100758.94;;;21.26;71.07
73220;BME280;61434;43.538;-5.688;2022-10-16T12:48:40;100770.09;;;21.24;71.68
73220;BME280;61434;43.538;-5.688;2022-10-16T12:54:03;100772.97;;;20.88;73.28
73220;BME280;61434;43.538;-5.688;2022-10-16T13:10:59;100800.59;;;21.15;73.64
73220;BME280;61434;43.538;-5.688;2022-10-16T13:17:00;100798.34;;;21.25;73.19
73220;BME280;61434;43.538;-5.688;2022-10-16T13:27:22;100782.88;;;21.39;73.17
73220;BME280;61434;43.538;-5.688;2022-10-16T13:30:01;100791.03;;;22.08;71.38
73220;BME280;61434;43.538;-5.688;2022-10-16T13:32:27;100798.78;;;21.91;71.10
73220;BME280;61434;43.538;-5.688;2022-10-16T13:34:54;100803.84;;;21.88;71.61
73220;BME280;61434;43.538;-5.688;2022-10-16T13:37:23;100819.69;;;21.58;72.59
73220;BME280;61434;43.538;-5.688;2022-10-16T13:39:49;100827.91;;;21.58;73.20
73220;BME280;61434;43.538;-5.688;2022-10-16T13:42:27;100812.56;;;21.63;72.87
73220;BME280;61434;43.538;-5.688;2022-10-16T13:44:54;100814.34;;;21.49;73.70
73220;BME280;61434;43.538;-5.688;2022-10-16T13:47:23;100812.19;;;21.38;74.19
73220;BME280;61434;43.538;-5.688;2022-10-16T13:50:18;100793.09;;;21.30;74.49
73220;BME280;61434;43.538;-5.688;2022-10-16T13:52:44;100793.44;;;21.42;74.23
73220;BME280;61434;43.538;-5.688;2022-10-16T13:57:36;100797.28;;;21.26;75.28
73220;BME280;61434;43.538;-5.688;2022-10-16T14:00:02;100794.84;;;21.10;75.68
73220;BME280;61434;43.538;-5.688;2022-10-16T14:02:36;100800.41;;;21.44;74.81
73220;BME280;61434;43.538;-5.688;2022-10-16T14:05:08;100798.56;;;21.51;74.27
73220;BME280;61434;43.538;-5.688;2022-10-16T14:07:35;100800.81;;;21.41;74.67
73220;BME280;61434;43.538;-5.688;2022-10-16T14:10:04;100802.75;;;21.47;74.75
73220;BME280;61434;43.538;-5.688;2022-10-16T14:12:31;100801.53;;;21.29;75.34
73220;BME280;61434;43.538;-5.688;2022-10-16T14:14:58;100800.88;;;21.26;75.47
73220;BME280;61434;43.538;-5.688;2022-10-16T14:17:27;100794.91;;;21.16;76.08
73220;BME280;61434;43.538;-5.688;2022-10-16T14:19:57;100789.00;;;21.41;75.21
73220;BME280;61434;43.538;-5.688;2022-10-16T14:24:52;100786.44;;;21.33;75.63
73220;BME280;61434;43.538;-5.688;2022-10-16T14:32:33;100776.91;;;21.07;76.85
73220;BME280;61434;43.538;-5.688;2022-10-16T14:34:59;100790.69;;;21.14;76.58
73220;BME280;61434;43.538;-5.688;2022-10-16T14:37:28;100798.41;;;21.04;76.76
73220;BME280;61434;43.538;-5.688;2022-10-16T14:39:55;100809.34;;;20.82;77.72
73220;BME280;61434;43.538;-5.688;2022-10-16T14:42:23;100818.72;;;20.73;78.49
73220;BME280;61434;43.538;-5.688;2022-10-16T14:44:53;100822.78;;;20.77;78.34
73220;BME280;61434;43.538;-5.688;2022-10-16T14:47:24;100820.31;;;20.82;78.06
73220;BME280;61434;43.538;-5.688;2022-10-16T14:49:52;100805.63;;;20.90;77.84
73220;BME280;61434;43.538;-5.688;2022-10-16T14:52:20;100800.69;;;21.00;77.15
73220;BME280;61434;43.538;-5.688;2022-10-16T14:54:49;100806.34;;;20.98;77.22
73220;BME280;61434;43.538;-5.688;2022-10-16T14:57:19;100811.22;;;21.03;77.15
73220;BME280;61434;43.538;-5.688;2022-10-16T14:59:46;100806.03;;;21.08;76.79
73220;BME280;61434;43.538;-5.688;2022-10-16T15:02:30;100800.94;;;21.05;77.05
73220;BME280;61434;43.538;-5.688;2022-10-16T15:04:56;100814.91;;;21.17;76.49